sensor_id;sensor_type;location;lat;lon;timestamp;temperature;humidity
80426;DHT22;69766;51.476;5.704;2023-06-14T00:00:53;17.40;60.20
80426;DHT22;69766;51.476;5.704;2023-06-14T00:03:22;17.30;60.20
80426;DHT22;69766;51.476;5.704;2023-06-14T00:05:50;17.30;60.60
80426;DHT22;69766;51.476;5.704;2023-06-14T00:08:15;17.20;60.60
80426;DHT22;69766;51.476;5.704;2023-06-14T00:10:41;17.20;60.70
80426;DHT22;69766;51.476;5.704;2023-06-14T00:13:08;17.10;60.30
80426;DHT22;69766;51.476;5.704;2023-06-14T00:15:35;17.10;59.80
80426;DHT22;69766;51.476;5.704;2023-06-14T00:18:01;17.20;60.30
80426;DHT22;69766;51.476;5.704;2023-06-14T00:20:28;17.20;60.30
80426;DHT22;69766;51.476;5.704;2023-06-14T00:22:54;17.00;60.50
80426;DHT22;69766;51.476;5.704;2023-06-14T00:25:23;17.00;60.50
80426;DHT22;69766;51.476;5.704;2023-06-14T00:27:57;16.90;60.80
80426;DHT22;69766;51.476;5.704;2023-06-14T00:30:23;16.90;61.20
80426;DHT22;69766;51.476;5.704;2023-06-14T00:32:49;16.80;60.80
80426;DHT22;69766;51.476;5.704;2023-06-14T00:35:15;16.90;60.40
80426;DHT22;69766;51.476;5.704;2023-06-14T00:37:41;16.80;60.10
80426;DHT22;69766;51.476;5.704;2023-06-14T00:40:07;16.80;60.50
80426;DHT22;69766;51.476;5.704;2023-06-14T00:42:33;16.80;60.80
80426;DHT22;69766;51.476;5.704;2023-06-14T00:45:00;16.70;60.70
80426;DHT22;69766;51.476;5.704;2023-06-14T00:47:25;16.70;60.70
80426;DHT22;69766;51.476;5.704;2023-06-14T00:49:53;16.60;60.70
80426;DHT22;69766;51.476;5.704;2023-06-14T00:52:19;16.60;60.50
80426;DHT22;69766;51.476;5.704;2023-06-14T00:54:46;16.60;60.50
80426;DHT22;69766;51.476;5.704;2023-06-14T00:57:13;16.50;60.50
80426;DHT22;69766;51.476;5.704;2023-06-14T00:59:47;16.50;60.70
80426;DHT22;69766;51.476;5.704;2023-06-14T01:02:13;16.60;60.10
80426;DHT22;69766;51.476;5.704;2023-06-14T01:04:45;16.50;60.60
80426;DHT22;69766;51.476;5.704;2023-06-14T01:10:35;16.50;60.20
80426;DHT22;69766;51.476;5.704;2023-06-14T01:15:48;16.30;60.70
80426;DHT22;69766;51.476;5.704;2023-06-14T01:18:15;16.30;60.90
80426;DHT22;69766;51.476;5.704;2023-06-14T01:20:43;16.30;60.80
80426;DHT22;69766;51.476;5.704;2023-06-14T01:23:21;16.30;60.80
80426;DHT22;69766;51.476;5.704;2023-06-14T01:25:48;16.30;60.70
80426;DHT22;69766;51.476;5.704;2023-06-14T01:28:19;16.20;60.90
80426;DHT22;69766;51.476;5.704;2023-06-14T01:30:49;16.20;60.90
80426;DHT22;69766;51.476;5.704;2023-06-14T01:33:26;16.20;61.10
80426;DHT22;69766;51.476;5.704;2023-06-14T01:35:53;16.10;61.50
80426;DHT22;69766;51.476;5.704;2023-06-14T01:38:22;16.00;61.70
80426;DHT22;69766;51.476;5.704;2023-06-14T01:40:52;16.00;62.00
80426;DHT22;69766;51.476;5.704;2023-06-14T01:43:19;15.90;62.30
80426;DHT22;69766;51.476;5.704;2023-06-14T01:45:47;15.70;63.10
80426;DHT22;69766;51.476;5.704;2023-06-14T01:48:14;15.60;63.40
80426;DHT22;69766;51.476;5.704;2023-06-14T01:50:40;15.70;63.20
80426;DHT22;69766;51.476;5.704;2023-06-14T01:53:09;15.50;63.80
80426;DHT22;69766;51.476;5.704;2023-06-14T01:55:35;15.50;63.90
80426;DHT22;69766;51.476;5.704;2023-06-14T01:58:06;15.40;63.80
80426;DHT22;69766;51.476;5.704;2023-06-14T02:00:32;15.40;64.20
80426;DHT22;69766;51.476;5.704;2023-06-14T02:02:58;15.40;64.00
80426;DHT22;69766;51.476;5.704;2023-06-14T02:05:24;15.40;64.40
80426;DHT22;69766;51.476;5.704;2023-06-14T02:07:49;15.30;64.20
80426;DHT22;69766;51.476;5.704;2023-06-14T02:10:16;15.20;64.40
80426;DHT22;69766;51.476;5.704;2023-06-14T02:12:43;15.20;64.70
80426;DHT22;69766;51.476;5.704;2023-06-14T02:15:09;15.20;64.70
80426;DHT22;69766;51.476;5.704;2023-06-14T02:17:51;15.20;64.80
80426;DHT22;69766;51.476;5.704;2023-06-14T02:20:17;15.30;64.60
80426;DHT22;69766;51.476;5.704;2023-06-14T02:22:43;15.20;64.20
80426;DHT22;69766;51.476;5.704;2023-06-14T02:25:09;15.20;64.20
80426;DHT22;69766;51.476;5.704;2023-06-14T02:27:35;15.30;64.60
80426;DHT22;69766;51.476;5.704;2023-06-14T02:30:01;15.20;65.00
80426;DHT22;69766;51.476;5.704;2023-06-14T02:32:27;15.10;64.60
80426;DHT22;69766;51.476;5.704;2023-06-14T02:34:53;15.30;64.30
80426;DHT22;69766;51.476;5.704;2023-06-14T02:37:20;15.30;64.20
80426;DHT22;69766;51.476;5.704;2023-06-14T02:39:48;15.30;64.10
80426;DHT22;69766;51.476;5.704;2023-06-14T02:42:14;15.30;63.70
80426;DHT22;69766;51.476;5.704;2023-06-14T02:44:40;15.20;65.20
80426;DHT22;69766;51.476;5.704;2023-06-14T02:47:09;15.10;64.30
80426;DHT22;69766;51.476;5.704;2023-06-14T02:49:35;15.10;64.50
80426;DHT22;69766;51.476;5.704;2023-06-14T02:52:01;15.00;64.40
80426;DHT22;69766;51.476;5.704;2023-06-14T02:54:28;15.00;64.50
80426;DHT22;69766;51.476;5.704;2023-06-14T02:56:53;14.90;65.10
80426;DHT22;69766;51.476;5.704;2023-06-14T02:59:19;14.90;64.90
80426;DHT22;69766;51.476;5.704;2023-06-14T03:01:46;14.90;65.50
80426;DHT22;69766;51.476;5.704;2023-06-14T03:04:12;14.90;65.40
80426;DHT22;69766;51.476;5.704;2023-06-14T03:06:38;14.90;65.10
80426;DHT22;69766;51.476;5.704;2023-06-14T03:09:05;14.90;65.10
80426;DHT22;69766;51.476;5.704;2023-06-14T03:11:31;14.90;64.90
80426;DHT22;69766;51.476;5.704;2023-06-14T03:13:57;14.90;64.90
80426;DHT22;69766;51.476;5.704;2023-06-14T03:16:23;14.90;64.80
80426;DHT22;69766;51.476;5.704;2023-06-14T03:18:53;15.00;64.80
80426;DHT22;69766;51.476;5.704;2023-06-14T03:21:22;15.00;64.50
80426;DHT22;69766;51.476;5.704;2023-06-14T03:23:48;15.00;64.30
80426;DHT22;69766;51.476;5.704;2023-06-14T03:26:14;15.00;64.30
80426;DHT22;69766;51.476;5.704;2023-06-14T03:28:47;15.00;64.50
80426;DHT22;69766;51.476;5.704;2023-06-14T03:31:15;15.10;64.20
80426;DHT22;69766;51.476;5.704;2023-06-14T03:33:41;15.00;64.40
80426;DHT22;69766;51.476;5.704;2023-06-14T03:36:10;15.00;64.30
80426;DHT22;69766;51.476;5.704;2023-06-14T03:38:36;15.10;64.30
80426;DHT22;69766;51.476;5.704;2023-06-14T03:41:02;15.10;64.10
80426;DHT22;69766;51.476;5.704;2023-06-14T03:43:27;15.10;64.20
80426;DHT22;69766;51.476;5.704;2023-06-14T03:45:53;15.00;64.40
80426;DHT22;69766;51.476;5.704;2023-06-14T03:48:19;15.10;64.50
80426;DHT22;69766;51.476;5.704;2023-06-14T03:50:48;15.10;64.30
80426;DHT22;69766;51.476;5.704;2023-06-14T03:53:14;15.10;64.60
80426;DHT22;69766;51.476;5.704;2023-06-14T03:55:46;15.10;64.40
80426;DHT22;69766;51.476;5.704;2023-06-14T03:58:18;15.00;64.50
80426;DHT22;69766;51.476;5.704;2023-06-14T04:00:43;15.10;64.70
80426;DHT22;69766;51.476;5.704;2023-06-14T04:03:10;15.10;64.50
80426;DHT22;69766;51.476;5.704;2023-06-14T04:05:39;15.10;64.70
80426;DHT22;69766;51.476;5.704;2023-06-14T04:08:08;15.10;64.70
80426;DHT22;69766;51.476;5.704;2023-06-14T04:10:34;15.10;64.90
80426;DHT22;69766;51.476;5.704;2023-06-14T04:13:00;15.20;64.70
80426;DHT22;69766;51.476;5.704;2023-06-14T04:15:26;15.20;64.80
80426;DHT22;69766;51.476;5.704;2023-06-14T04:17:55;15.20;64.80
80426;DHT22;69766;51.476;5.704;2023-06-14T04:20:23;15.30;64.60
80426;DHT22;69766;51.476;5.704;2023-06-14T04:22:52;15.30;64.50
80426;DHT22;69766;51.476;5.704;2023-06-14T04:25:18;15.30;64.80
80426;DHT22;69766;51.476;5.704;2023-06-14T04:27:44;15.30;64.40
80426;DHT22;69766;51.476;5.704;2023-06-14T04:30:10;15.30;64.90
80426;DHT22;69766;51.476;5.704;2023-06-14T04:32:36;15.40;65.00
80426;DHT22;69766;51.476;5.704;2023-06-14T04:35:08;15.30;64.80
80426;DHT22;69766;51.476;5.704;2023-06-14T04:37:34;15.40;65.20
80426;DHT22;69766;51.476;5.704;2023-06-14T04:40:00;15.50;64.90
80426;DHT22;69766;51.476;5.704;2023-06-14T04:42:26;15.50;65.10
80426;DHT22;69766;51.476;5.704;2023-06-14T04:44:55;15.50;65.20
80426;DHT22;69766;51.476;5.704;2023-06-14T04:47:21;15.60;65.00
80426;DHT22;69766;51.476;5.704;2023-06-14T04:49:46;15.70;64.80
80426;DHT22;69766;51.476;5.704;2023-06-14T04:52:13;15.60;65.00
80426;DHT22;69766;51.476;5.704;2023-06-14T04:54:39;15.70;65.70
80426;DHT22;69766;51.476;5.704;2023-06-14T04:57:08;15.70;65.70
80426;DHT22;69766;51.476;5.704;2023-06-14T04:59:34;15.70;65.30
80426;DHT22;69766;51.476;5.704;2023-06-14T05:02:01;15.80;65.50
80426;DHT22;69766;51.476;5.704;2023-06-14T05:04:27;15.90;64.90
80426;DHT22;69766;51.476;5.704;2023-06-14T05:06:54;15.90;65.20
80426;DHT22;69766;51.476;5.704;2023-06-14T05:09:20;16.00;64.80
80426;DHT22;69766;51.476;5.704;2023-06-14T05:11:46;16.00;64.50
80426;DHT22;69766;51.476;5.704;2023-06-14T05:14:13;16.10;64.70
80426;DHT22;69766;51.476;5.704;2023-06-14T05:16:40;16.10;64.10
80426;DHT22;69766;51.476;5.704;2023-06-14T05:19:06;16.20;63.80
80426;DHT22;69766;51.476;5.704;2023-06-14T05:21:33;16.10;63.80
80426;DHT22;69766;51.476;5.704;2023-06-14T05:24:03;16.30;62.90
80426;DHT22;69766;51.476;5.704;2023-06-14T05:26:30;16.40;63.10
80426;DHT22;69766;51.476;5.704;2023-06-14T05:29:01;16.40;63.30
80426;DHT22;69766;51.476;5.704;2023-06-14T05:31:27;16.50;63.50
80426;DHT22;69766;51.476;5.704;2023-06-14T05:33:53;16.50;63.70
80426;DHT22;69766;51.476;5.704;2023-06-14T05:36:20;16.70;62.70
80426;DHT22;69766;51.476;5.704;2023-06-14T05:38:46;16.70;62.40
80426;DHT22;69766;51.476;5.704;2023-06-14T05:41:12;16.90;62.10
80426;DHT22;69766;51.476;5.704;2023-06-14T05:43:38;16.90;62.00
80426;DHT22;69766;51.476;5.704;2023-06-14T05:46:03;17.10;61.60
80426;DHT22;69766;51.476;5.704;2023-06-14T05:48:30;17.20;61.40
80426;DHT22;69766;51.476;5.704;2023-06-14T05:50:56;17.40;60.50
80426;DHT22;69766;51.476;5.704;2023-06-14T05:53:22;17.60;60.90
80426;DHT22;69766;51.476;5.704;2023-06-14T05:55:48;17.70;60.80
80426;DHT22;69766;51.476;5.704;2023-06-14T05:58:14;17.80;60.50
80426;DHT22;69766;51.476;5.704;2023-06-14T06:00:40;17.80;60.40
80426;DHT22;69766;51.476;5.704;2023-06-14T06:03:05;17.80;59.50
80426;DHT22;69766;51.476;5.704;2023-06-14T06:05:33;17.90;60.20
80426;DHT22;69766;51.476;5.704;2023-06-14T06:07:59;17.90;60.50
80426;DHT22;69766;51.476;5.704;2023-06-14T06:10:25;17.90;59.90
80426;DHT22;69766;51.476;5.704;2023-06-14T06:12:51;18.00;60.90
80426;DHT22;69766;51.476;5.704;2023-06-14T06:15:17;18.00;60.20
80426;DHT22;69766;51.476;5.704;2023-06-14T06:17:44;18.00;60.70
80426;DHT22;69766;51.476;5.704;2023-06-14T06:20:10;18.10;59.40
80426;DHT22;69766;51.476;5.704;2023-06-14T06:22:37;18.30;59.30
80426;DHT22;69766;51.476;5.704;2023-06-14T06:25:03;18.90;58.50
80426;DHT22;69766;51.476;5.704;2023-06-14T06:27:29;19.30;56.90
80426;DHT22;69766;51.476;5.704;2023-06-14T06:29:55;19.40;55.40
80426;DHT22;69766;51.476;5.704;2023-06-14T06:32:21;19.40;55.40
80426;DHT22;69766;51.476;5.704;2023-06-14T06:34:47;19.40;54.40
80426;DHT22;69766;51.476;5.704;2023-06-14T06:37:13;19.60;54.90
80426;DHT22;69766;51.476;5.704;2023-06-14T06:39:39;20.50;52.10
80426;DHT22;69766;51.476;5.704;2023-06-14T06:42:05;21.30;49.40
80426;DHT22;69766;51.476;5.704;2023-06-14T06:44:32;22.00;48.00
80426;DHT22;69766;51.476;5.704;2023-06-14T06:46:58;22.80;46.00
80426;DHT22;69766;51.476;5.704;2023-06-14T06:49:24;23.20;46.00
80426;DHT22;69766;51.476;5.704;2023-06-14T06:52:00;23.20;45.10
80426;DHT22;69766;51.476;5.704;2023-06-14T06:54:27;23.90;44.60
80426;DHT22;69766;51.476;5.704;2023-06-14T06:56:53;24.70;42.50
80426;DHT22;69766;51.476;5.704;2023-06-14T06:59:18;25.50;41.30
80426;DHT22;69766;51.476;5.704;2023-06-14T07:01:44;25.20;41.00
80426;DHT22;69766;51.476;5.704;2023-06-14T07:04:10;25.30;39.70
80426;DHT22;69766;51.476;5.704;2023-06-14T07:06:36;25.90;40.90
80426;DHT22;69766;51.476;5.704;2023-06-14T07:09:03;26.10;38.50
80426;DHT22;69766;51.476;5.704;2023-06-14T07:11:33;25.40;39.90
80426;DHT22;69766;51.476;5.704;2023-06-14T07:13:59;25.80;40.00
80426;DHT22;69766;51.476;5.704;2023-06-14T07:16:25;25.70;39.50
80426;DHT22;69766;51.476;5.704;2023-06-14T07:18:51;25.90;39.00
80426;DHT22;69766;51.476;5.704;2023-06-14T07:21:17;26.40;38.00
80426;DHT22;69766;51.476;5.704;2023-06-14T07:23:43;26.20;38.20
80426;DHT22;69766;51.476;5.704;2023-06-14T07:26:09;26.50;38.70
80426;DHT22;69766;51.476;5.704;2023-06-14T07:28:34;26.90;37.70
80426;DHT22;69766;51.476;5.704;2023-06-14T07:31:01;26.60;38.50
80426;DHT22;69766;51.476;5.704;2023-06-14T07:33:26;26.70;38.50
80426;DHT22;69766;51.476;5.704;2023-06-14T07:35:52;26.80;37.00
80426;DHT22;69766;51.476;5.704;2023-06-14T07:38:18;26.20;38.60
80426;DHT22;69766;51.476;5.704;2023-06-14T07:40:44;26.20;39.00
80426;DHT22;69766;51.476;5.704;2023-06-14T07:43:10;27.30;37.30
80426;DHT22;69766;51.476;5.704;2023-06-14T07:45:36;27.50;37.10
80426;DHT22;69766;51.476;5.704;2023-06-14T07:48:02;26.40;37.50
80426;DHT22;69766;51.476;5.704;2023-06-14T07:50:28;26.70;37.80
80426;DHT22;69766;51.476;5.704;2023-06-14T07:52:54;27.30;37.00
80426;DHT22;69766;51.476;5.704;2023-06-14T07:55:20;27.70;36.00
80426;DHT22;69766;51.476;5.704;2023-06-14T07:57:46;28.20;36.40
80426;DHT22;69766;51.476;5.704;2023-06-14T08:00:12;29.90;34.80
80426;DHT22;69766;51.476;5.704;2023-06-14T08:02:44;30.30;32.70
80426;DHT22;69766;51.476;5.704;2023-06-14T08:05:10;30.70;32.90
80426;DHT22;69766;51.476;5.704;2023-06-14T08:07:39;29.70;32.90
80426;DHT22;69766;51.476;5.704;2023-06-14T08:10:06;30.80;32.50
80426;DHT22;69766;51.476;5.704;2023-06-14T08:12:33;29.90;32.50
80426;DHT22;69766;51.476;5.704;2023-06-14T08:14:59;30.30;31.90
80426;DHT22;69766;51.476;5.704;2023-06-14T08:17:25;28.80;32.80
80426;DHT22;69766;51.476;5.704;2023-06-14T08:19:51;30.10;32.70
80426;DHT22;69766;51.476;5.704;2023-06-14T08:22:17;30.00;32.30
80426;DHT22;69766;51.476;5.704;2023-06-14T08:24:43;29.80;31.50
80426;DHT22;69766;51.476;5.704;2023-06-14T08:27:10;29.60;32.80
80426;DHT22;69766;51.476;5.704;2023-06-14T08:29:35;30.10;32.40
80426;DHT22;69766;51.476;5.704;2023-06-14T08:32:07;31.20;31.50
80426;DHT22;69766;51.476;5.704;2023-06-14T08:34:34;32.30;30.00
80426;DHT22;69766;51.476;5.704;2023-06-14T08:37:00;32.00;31.10
80426;DHT22;69766;51.476;5.704;2023-06-14T08:39:26;31.40;30.00
80426;DHT22;69766;51.476;5.704;2023-06-14T08:41:53;31.00;30.00
80426;DHT22;69766;51.476;5.704;2023-06-14T08:44:23;30.90;31.50
80426;DHT22;69766;51.476;5.704;2023-06-14T08:46:49;30.50;29.90
80426;DHT22;69766;51.476;5.704;2023-06-14T08:49:16;30.80;30.00
80426;DHT22;69766;51.476;5.704;2023-06-14T08:51:43;30.70;30.10
80426;DHT22;69766;51.476;5.704;2023-06-14T08:54:11;30.30;29.90
80426;DHT22;69766;51.476;5.704;2023-06-14T08:56:38;31.50;29.20
80426;DHT22;69766;51.476;5.704;2023-06-14T08:59:04;31.40;28.60
80426;DHT22;69766;51.476;5.704;2023-06-14T09:01:33;32.00;28.20
80426;DHT22;69766;51.476;5.704;2023-06-14T09:04:00;32.00;28.50
80426;DHT22;69766;51.476;5.704;2023-06-14T09:06:26;31.90;28.40
80426;DHT22;69766;51.476;5.704;2023-06-14T09:08:55;31.90;27.40
80426;DHT22;69766;51.476;5.704;2023-06-14T09:11:22;31.70;26.90
80426;DHT22;69766;51.476;5.704;2023-06-14T09:13:49;32.10;27.30
80426;DHT22;69766;51.476;5.704;2023-06-14T09:16:16;33.20;27.70
80426;DHT22;69766;51.476;5.704;2023-06-14T09:18:45;31.90;27.60
80426;DHT22;69766;51.476;5.704;2023-06-14T09:21:14;31.50;27.40
80426;DHT22;69766;51.476;5.704;2023-06-14T09:23:44;31.20;27.70
80426;DHT22;69766;51.476;5.704;2023-06-14T09:26:12;32.40;27.40
80426;DHT22;69766;51.476;5.704;2023-06-14T09:28:48;31.90;26.40
80426;DHT22;69766;51.476;5.704;2023-06-14T09:31:16;32.00;26.80
80426;DHT22;69766;51.476;5.704;2023-06-14T09:33:45;31.90;27.10
80426;DHT22;69766;51.476;5.704;2023-06-14T09:36:17;32.00;27.10
80426;DHT22;69766;51.476;5.704;2023-06-14T09:39:03;33.40;26.90
80426;DHT22;69766;51.476;5.704;2023-06-14T09:41:35;33.40;26.60
80426;DHT22;69766;51.476;5.704;2023-06-14T09:44:04;33.10;26.80
80426;DHT22;69766;51.476;5.704;2023-06-14T09:46:31;32.40;26.00
80426;DHT22;69766;51.476;5.704;2023-06-14T09:49:01;31.50;27.10
80426;DHT22;69766;51.476;5.704;2023-06-14T09:51:28;31.40;27.00
80426;DHT22;69766;51.476;5.704;2023-06-14T09:53:59;31.50;27.20
80426;DHT22;69766;51.476;5.704;2023-06-14T09:56:31;31.60;27.30
80426;DHT22;69766;51.476;5.704;2023-06-14T09:58:59;31.90;27.00
80426;DHT22;69766;51.476;5.704;2023-06-14T10:01:30;32.90;27.30
80426;DHT22;69766;51.476;5.704;2023-06-14T10:04:02;32.80;26.40
80426;DHT22;69766;51.476;5.704;2023-06-14T10:06:29;31.90;27.10
80426;DHT22;69766;51.476;5.704;2023-06-14T10:08:59;32.60;26.70
80426;DHT22;69766;51.476;5.704;2023-06-14T10:11:26;32.30;26.60
80426;DHT22;69766;51.476;5.704;2023-06-14T10:13:56;32.30;26.90
80426;DHT22;69766;51.476;5.704;2023-06-14T10:16:30;32.30;26.70
80426;DHT22;69766;51.476;5.704;2023-06-14T10:19:19;33.10;26.40
80426;DHT22;69766;51.476;5.704;2023-06-14T10:22:00;32.00;27.50
80426;DHT22;69766;51.476;5.704;2023-06-14T10:24:33;32.00;27.00
80426;DHT22;69766;51.476;5.704;2023-06-14T10:27:00;31.90;27.60
80426;DHT22;69766;51.476;5.704;2023-06-14T10:29:27;33.10;27.50
80426;DHT22;69766;51.476;5.704;2023-06-14T10:31:59;32.50;26.50
80426;DHT22;69766;51.476;5.704;2023-06-14T10:34:29;31.50;27.30
80426;DHT22;69766;51.476;5.704;2023-06-14T10:37:21;31.50;27.70
80426;DHT22;69766;51.476;5.704;2023-06-14T10:39:46;31.40;27.90
80426;DHT22;69766;51.476;5.704;2023-06-14T10:42:13;31.80;28.00
80426;DHT22;69766;51.476;5.704;2023-06-14T10:47:21;33.00;27.40
80426;DHT22;69766;51.476;5.704;2023-06-14T10:50:06;32.50;26.80
80426;DHT22;69766;51.476;5.704;2023-06-14T10:52:43;32.10;27.60
80426;DHT22;69766;51.476;5.704;2023-06-14T10:55:16;31.50;28.90
80426;DHT22;69766;51.476;5.704;2023-06-14T10:57:54;31.00;28.20
80426;DHT22;69766;51.476;5.704;2023-06-14T11:00:27;32.10;27.70
80426;DHT22;69766;51.476;5.704;2023-06-14T11:05:54;32.50;27.90
80426;DHT22;69766;51.476;5.704;2023-06-14T11:11:13;33.00;27.10
80426;DHT22;69766;51.476;5.704;2023-06-14T11:13:41;32.20;27.20
80426;DHT22;69766;51.476;5.704;2023-06-14T11:16:11;32.00;27.90
80426;DHT22;69766;51.476;5.704;2023-06-14T11:18:37;33.40;27.70
80426;DHT22;69766;51.476;5.704;2023-06-14T11:21:03;32.30;28.20
80426;DHT22;69766;51.476;5.704;2023-06-14T11:23:29;33.10;28.00
80426;DHT22;69766;51.476;5.704;2023-06-14T11:25:55;32.30;28.70
80426;DHT22;69766;51.476;5.704;2023-06-14T11:28:20;33.70;27.10
80426;DHT22;69766;51.476;5.704;2023-06-14T11:30:48;32.90;28.10
80426;DHT22;69766;51.476;5.704;2023-06-14T11:33:17;32.80;28.10
80426;DHT22;69766;51.476;5.704;2023-06-14T11:35:46;32.50;27.80
80426;DHT22;69766;51.476;5.704;2023-06-14T11:38:13;32.80;27.90
80426;DHT22;69766;51.476;5.704;2023-06-14T11:40:39;31.80;28.90
80426;DHT22;69766;51.476;5.704;2023-06-14T11:43:04;32.00;28.20
80426;DHT22;69766;51.476;5.704;2023-06-14T11:45:30;31.90;28.40
80426;DHT22;69766;51.476;5.704;2023-06-14T11:47:58;33.10;27.50
80426;DHT22;69766;51.476;5.704;2023-06-14T11:50:24;32.60;27.60
80426;DHT22;69766;51.476;5.704;2023-06-14T11:52:58;31.70;28.70
80426;DHT22;69766;51.476;5.704;2023-06-14T11:55:39;31.70;29.10
80426;DHT22;69766;51.476;5.704;2023-06-14T11:58:06;32.30;28.30
80426;DHT22;69766;51.476;5.704;2023-06-14T12:00:32;31.60;28.20
80426;DHT22;69766;51.476;5.704;2023-06-14T12:03:00;31.20;28.40
80426;DHT22;69766;51.476;5.704;2023-06-14T12:05:26;31.50;28.40
80426;DHT22;69766;51.476;5.704;2023-06-14T12:07:58;31.70;28.90
80426;DHT22;69766;51.476;5.704;2023-06-14T12:10:25;33.00;27.70
80426;DHT22;69766;51.476;5.704;2023-06-14T12:12:56;31.80;28.10
80426;DHT22;69766;51.476;5.704;2023-06-14T12:15:21;31.30;29.20
80426;DHT22;69766;51.476;5.704;2023-06-14T12:17:47;30.70;29.20
80426;DHT22;69766;51.476;5.704;2023-06-14T12:20:13;31.00;29.00
80426;DHT22;69766;51.476;5.704;2023-06-14T12:25:31;32.00;28.50
80426;DHT22;69766;51.476;5.704;2023-06-14T12:27:58;31.80;28.20
80426;DHT22;69766;51.476;5.704;2023-06-14T12:30:24;31.80;27.40
80426;DHT22;69766;51.476;5.704;2023-06-14T12:32:50;32.40;27.60
80426;DHT22;69766;51.476;5.704;2023-06-14T12:35:18;32.70;27.30
80426;DHT22;69766;51.476;5.704;2023-06-14T12:37:46;31.90;28.00
80426;DHT22;69766;51.476;5.704;2023-06-14T12:40:13;33.10;27.60
80426;DHT22;69766;51.476;5.704;2023-06-14T12:42:39;33.50;26.70
80426;DHT22;69766;51.476;5.704;2023-06-14T12:45:06;33.80;27.30
80426;DHT22;69766;51.476;5.704;2023-06-14T12:47:31;34.30;25.70
80426;DHT22;69766;51.476;5.704;2023-06-14T12:49:57;34.00;26.40
80426;DHT22;69766;51.476;5.704;2023-06-14T12:52:23;34.00;27.10
80426;DHT22;69766;51.476;5.704;2023-06-14T12:54:49;33.10;26.90
80426;DHT22;69766;51.476;5.704;2023-06-14T12:57:18;32.20;27.80
80426;DHT22;69766;51.476;5.704;2023-06-14T12:59:47;33.70;27.20
80426;DHT22;69766;51.476;5.704;2023-06-14T13:02:13;33.80;27.10
80426;DHT22;69766;51.476;5.704;2023-06-14T13:04:39;33.80;27.20
80426;DHT22;69766;51.476;5.704;2023-06-14T13:07:05;32.60;27.10
80426;DHT22;69766;51.476;5.704;2023-06-14T13:09:31;33.00;27.30
80426;DHT22;69766;51.476;5.704;2023-06-14T13:11:57;32.60;27.00
80426;DHT22;69766;51.476;5.704;2023-06-14T13:14:23;32.10;27.30
80426;DHT22;69766;51.476;5.704;2023-06-14T13:16:48;32.70;27.90
80426;DHT22;69766;51.476;5.704;2023-06-14T13:19:14;31.80;28.10
80426;DHT22;69766;51.476;5.704;2023-06-14T13:21:40;32.20;28.70
80426;DHT22;69766;51.476;5.704;2023-06-14T13:24:06;31.40;28.50
80426;DHT22;69766;51.476;5.704;2023-06-14T13:26:32;31.40;28.50
80426;DHT22;69766;51.476;5.704;2023-06-14T13:28:58;32.20;27.40
80426;DHT22;69766;51.476;5.704;2023-06-14T13:31:24;33.70;26.50
80426;DHT22;69766;51.476;5.704;2023-06-14T13:33:49;33.30;26.30
80426;DHT22;69766;51.476;5.704;2023-06-14T13:36:15;33.80;26.20
80426;DHT22;69766;51.476;5.704;2023-06-14T13:38:41;32.40;27.20
80426;DHT22;69766;51.476;5.704;2023-06-14T13:41:09;31.20;28.00
80426;DHT22;69766;51.476;5.704;2023-06-14T13:43:35;31.50;27.70
80426;DHT22;69766;51.476;5.704;2023-06-14T13:46:00;32.00;27.30
80426;DHT22;69766;51.476;5.704;2023-06-14T13:48:26;32.60;27.30
80426;DHT22;69766;51.476;5.704;2023-06-14T13:50:52;33.30;26.60
80426;DHT22;69766;51.476;5.704;2023-06-14T13:53:18;33.40;26.90
80426;DHT22;69766;51.476;5.704;2023-06-14T13:55:43;33.50;26.40
80426;DHT22;69766;51.476;5.704;2023-06-14T13:58:09;33.00;26.80
80426;DHT22;69766;51.476;5.704;2023-06-14T14:00:35;32.80;27.20
80426;DHT22;69766;51.476;5.704;2023-06-14T14:03:05;32.20;27.20
80426;DHT22;69766;51.476;5.704;2023-06-14T14:05:31;32.10;27.00
80426;DHT22;69766;51.476;5.704;2023-06-14T14:07:57;31.80;27.80
80426;DHT22;69766;51.476;5.704;2023-06-14T14:10:24;30.50;28.10
80426;DHT22;69766;51.476;5.704;2023-06-14T14:12:51;31.40;27.80
80426;DHT22;69766;51.476;5.704;2023-06-14T14:15:18;31.10;27.60
80426;DHT22;69766;51.476;5.704;2023-06-14T14:17:44;30.70;28.50
80426;DHT22;69766;51.476;5.704;2023-06-14T14:20:10;32.00;28.00
80426;DHT22;69766;51.476;5.704;2023-06-14T14:22:47;31.80;28.10
80426;DHT22;69766;51.476;5.704;2023-06-14T14:25:13;31.60;28.50
80426;DHT22;69766;51.476;5.704;2023-06-14T14:27:38;31.30;28.20
80426;DHT22;69766;51.476;5.704;2023-06-14T14:30:05;30.40;28.90
80426;DHT22;69766;51.476;5.704;2023-06-14T14:32:31;29.70;29.00
80426;DHT22;69766;51.476;5.704;2023-06-14T14:34:57;30.00;29.60
80426;DHT22;69766;51.476;5.704;2023-06-14T14:37:23;30.90;28.90
80426;DHT22;69766;51.476;5.704;2023-06-14T14:39:49;31.70;28.20
80426;DHT22;69766;51.476;5.704;2023-06-14T14:42:15;32.00;27.80
80426;DHT22;69766;51.476;5.704;2023-06-14T14:44:40;32.90;26.80
80426;DHT22;69766;51.476;5.704;2023-06-14T14:47:06;31.50;27.90
80426;DHT22;69766;51.476;5.704;2023-06-14T14:49:32;30.90;28.10
80426;DHT22;69766;51.476;5.704;2023-06-14T14:52:01;30.20;28.50
80426;DHT22;69766;51.476;5.704;2023-06-14T14:54:29;30.70;29.20
80426;DHT22;69766;51.476;5.704;2023-06-14T14:56:55;31.20;29.10
80426;DHT22;69766;51.476;5.704;2023-06-14T14:59:21;30.00;29.40
80426;DHT22;69766;51.476;5.704;2023-06-14T15:01:49;30.60;29.30
80426;DHT22;69766;51.476;5.704;2023-06-14T15:04:16;29.60;29.70
80426;DHT22;69766;51.476;5.704;2023-06-14T15:06:41;29.50;30.00
80426;DHT22;69766;51.476;5.704;2023-06-14T15:09:07;29.30;30.50
80426;DHT22;69766;51.476;5.704;2023-06-14T15:11:33;29.70;29.90
80426;DHT22;69766;51.476;5.704;2023-06-14T15:13:59;30.40;29.80
80426;DHT22;69766;51.476;5.704;2023-06-14T15:16:24;30.40;29.10
80426;DHT22;69766;51.476;5.704;2023-06-14T15:18:50;29.70;30.00
80426;DHT22;69766;51.476;5.704;2023-06-14T15:21:16;29.90;30.00
80426;DHT22;69766;51.476;5.704;2023-06-14T15:23:42;29.80;29.80
80426;DHT22;69766;51.476;5.704;2023-06-14T15:26:08;29.90;30.80
80426;DHT22;69766;51.476;5.704;2023-06-14T15:28:34;29.80;31.50
80426;DHT22;69766;51.476;5.704;2023-06-14T15:31:00;29.40;31.60
80426;DHT22;69766;51.476;5.704;2023-06-14T15:33:25;28.50;31.50
80426;DHT22;69766;51.476;5.704;2023-06-14T15:35:51;28.40;31.50
80426;DHT22;69766;51.476;5.704;2023-06-14T15:38:17;28.90;31.40
80426;DHT22;69766;51.476;5.704;2023-06-14T15:40:43;28.60;31.60
80426;DHT22;69766;51.476;5.704;2023-06-14T15:43:09;28.60;32.20
80426;DHT22;69766;51.476;5.704;2023-06-14T15:45:35;29.10;30.30
80426;DHT22;69766;51.476;5.704;2023-06-14T15:48:02;28.60;30.90